sensor_id;sensor_type;location;lat;lon;timestamp;P1;durP1;ratioP1;P2;durP2;ratioP2
40433;SDS011;26146;51.114;5.654;2023-07-30T00:01:31;7.43;;;1.70;;
40433;SDS011;26146;51.114;5.654;2023-07-30T00:05:33;9.25;;;1.90;;
40433;SDS011;26146;51.114;5.654;2023-07-30T00:09:34;8.48;;;2.00;;
40433;SDS011;26146;51.114;5.654;2023-07-30T00:13:37;8.05;;;1.83;;
40433;SDS011;26146;51.114;5.654;2023-07-30T00:17:38;9.38;;;1.83;;
40433;SDS011;26146;51.114;5.654;2023-07-30T00:21:39;8.02;;;1.70;;
40433;SDS011;26146;51.114;5.654;2023-07-30T00:25:44;9.63;;;1.73;;
40433;SDS011;26146;51.114;5.654;2023-07-30T00:29:45;7.47;;;1.90;;
40433;SDS011;26146;51.114;5.654;2023-07-30T00:33:46;9.77;;;1.83;;
40433;SDS011;26146;51.114;5.654;2023-07-30T00:37:47;8.55;;;1.85;;
40433;SDS011;26146;51.114;5.654;2023-07-30T00:41:48;9.55;;;2.03;;
40433;SDS011;26146;51.114;5.654;2023-07-30T00:45:49;8.38;;;1.80;;
40433;SDS011;26146;51.114;5.654;2023-07-30T00:49:50;8.40;;;1.70;;
40433;SDS011;26146;51.114;5.654;2023-07-30T00:53:52;9.02;;;2.00;;
40433;SDS011;26146;51.114;5.654;2023-07-30T00:57:53;9.77;;;1.98;;
40433;SDS011;26146;51.114;5.654;2023-07-30T01:01:54;8.48;;;1.60;;
40433;SDS011;26146;51.114;5.654;2023-07-30T01:05:57;10.43;;;1.95;;
40433;SDS011;26146;51.114;5.654;2023-07-30T01:09:59;7.20;;;1.85;;
40433;SDS011;26146;51.114;5.654;2023-07-30T01:14:01;8.68;;;1.90;;
40433;SDS011;26146;51.114;5.654;2023-07-30T01:18:02;7.65;;;1.98;;
40433;SDS011;26146;51.114;5.654;2023-07-30T01:22:03;8.75;;;2.25;;
40433;SDS011;26146;51.114;5.654;2023-07-30T01:26:08;9.40;;;2.55;;
40433;SDS011;26146;51.114;5.654;2023-07-30T01:30:21;8.40;;;1.83;;
40433;SDS011;26146;51.114;5.654;2023-07-30T01:34:27;10.48;;;2.00;;
40433;SDS011;26146;51.114;5.654;2023-07-30T01:38:29;12.90;;;2.20;;
40433;SDS011;26146;51.114;5.654;2023-07-30T01:42:31;8.45;;;1.90;;
40433;SDS011;26146;51.114;5.654;2023-07-30T01:46:32;8.18;;;1.85;;
40433;SDS011;26146;51.114;5.654;2023-07-30T01:50:33;9.30;;;2.35;;
40433;SDS011;26146;51.114;5.654;2023-07-30T01:54:34;9.95;;;2.25;;
40433;SDS011;26146;51.114;5.654;2023-07-30T01:58:36;7.10;;;2.00;;
40433;SDS011;26146;51.114;5.654;2023-07-30T02:02:37;8.68;;;2.13;;
40433;SDS011;26146;51.114;5.654;2023-07-30T02:06:38;9.38;;;1.90;;
40433;SDS011;26146;51.114;5.654;2023-07-30T02:10:39;9.50;;;2.20;;
40433;SDS011;26146;51.114;5.654;2023-07-30T02:14:40;10.77;;;2.05;;
40433;SDS011;26146;51.114;5.654;2023-07-30T02:18:41;12.13;;;2.33;;
40433;SDS011;26146;51.114;5.654;2023-07-30T02:22:42;11.95;;;2.20;;
40433;SDS011;26146;51.114;5.654;2023-07-30T02:26:43;8.35;;;2.05;;
40433;SDS011;26146;51.114;5.654;2023-07-30T02:30:44;10.95;;;2.10;;
40433;SDS011;26146;51.114;5.654;2023-07-30T02:34:45;9.23;;;2.05;;
40433;SDS011;26146;51.114;5.654;2023-07-30T02:38:46;10.75;;;1.90;;
40433;SDS011;26146;51.114;5.654;2023-07-30T02:42:47;9.68;;;2.13;;
40433;SDS011;26146;51.114;5.654;2023-07-30T02:46:48;8.43;;;2.10;;
40433;SDS011;26146;51.114;5.654;2023-07-30T02:50:49;10.25;;;2.00;;
40433;SDS011;26146;51.114;5.654;2023-07-30T02:54:50;9.20;;;1.90;;
40433;SDS011;26146;51.114;5.654;2023-07-30T02:58:51;8.85;;;1.80;;
40433;SDS011;26146;51.114;5.654;2023-07-30T03:02:52;12.15;;;1.90;;
40433;SDS011;26146;51.114;5.654;2023-07-30T03:06:53;10.68;;;1.88;;
40433;SDS011;26146;51.114;5.654;2023-07-30T03:10:57;11.82;;;2.30;;
40433;SDS011;26146;51.114;5.654;2023-07-30T03:14:59;11.30;;;2.00;;
40433;SDS011;26146;51.114;5.654;2023-07-30T03:19:00;12.88;;;2.05;;
40433;SDS011;26146;51.114;5.654;2023-07-30T03:23:01;9.57;;;2.00;;
40433;SDS011;26146;51.114;5.654;2023-07-30T03:27:02;16.30;;;2.35;;
40433;SDS011;26146;51.114;5.654;2023-07-30T03:31:03;10.15;;;1.90;;
40433;SDS011;26146;51.114;5.654;2023-07-30T03:35:04;9.70;;;2.05;;
40433;SDS011;26146;51.114;5.654;2023-07-30T03:39:05;9.32;;;1.90;;
40433;SDS011;26146;51.114;5.654;2023-07-30T03:43:06;10.95;;;2.10;;
40433;SDS011;26146;51.114;5.654;2023-07-30T03:47:07;10.75;;;1.95;;
40433;SDS011;26146;51.114;5.654;2023-07-30T03:51:08;10.77;;;1.95;;
40433;SDS011;26146;51.114;5.654;2023-07-30T03:55:09;9.60;;;1.92;;
40433;SDS011;26146;51.114;5.654;2023-07-30T03:59:10;8.93;;;1.85;;
40433;SDS011;26146;51.114;5.654;2023-07-30T04:03:11;9.02;;;1.98;;
40433;SDS011;26146;51.114;5.654;2023-07-30T04:07:12;9.02;;;1.85;;
40433;SDS011;26146;51.114;5.654;2023-07-30T04:11:13;10.40;;;1.80;;
40433;SDS011;26146;51.114;5.654;2023-07-30T04:15:14;14.43;;;1.90;;
40433;SDS011;26146;51.114;5.654;2023-07-30T04:19:16;8.00;;;1.40;;
40433;SDS011;26146;51.114;5.654;2023-07-30T04:23:17;10.32;;;1.70;;
40433;SDS011;26146;51.114;5.654;2023-07-30T04:27:18;10.82;;;1.60;;
40433;SDS011;26146;51.114;5.654;2023-07-30T04:31:19;8.90;;;1.40;;
40433;SDS011;26146;51.114;5.654;2023-07-30T04:35:20;7.50;;;1.17;;
40433;SDS011;26146;51.114;5.654;2023-07-30T04:39:22;12.65;;;1.58;;
40433;SDS011;26146;51.114;5.654;2023-07-30T04:43:23;7.22;;;1.27;;
40433;SDS011;26146;51.114;5.654;2023-07-30T04:47:24;10.23;;;1.35;;
40433;SDS011;26146;51.114;5.654;2023-07-30T04:51:25;7.28;;;1.00;;
40433;SDS011;26146;51.114;5.654;2023-07-30T04:55:26;7.18;;;1.00;;
40433;SDS011;26146;51.114;5.654;2023-07-30T04:59:27;6.32;;;1.27;;
40433;SDS011;26146;51.114;5.654;2023-07-30T05:03:28;9.13;;;0.95;;
40433;SDS011;26146;51.114;5.654;2023-07-30T05:07:29;7.97;;;1.10;;
40433;SDS011;26146;51.114;5.654;2023-07-30T05:11:30;9.02;;;0.98;;
40433;SDS011;26146;51.114;5.654;2023-07-30T05:15:31;6.13;;;1.08;;
40433;SDS011;26146;51.114;5.654;2023-07-30T05:19:32;7.10;;;1.00;;
40433;SDS011;26146;51.114;5.654;2023-07-30T05:23:33;4.97;;;0.95;;
40433;SDS011;26146;51.114;5.654;2023-07-30T05:27:35;8.23;;;1.17;;
40433;SDS011;26146;51.114;5.654;2023-07-30T05:31:36;7.15;;;1.00;;
40433;SDS011;26146;51.114;5.654;2023-07-30T05:35:37;6.85;;;0.90;;
40433;SDS011;26146;51.114;5.654;2023-07-30T05:39:38;7.65;;;1.08;;
40433;SDS011;26146;51.114;5.654;2023-07-30T05:43:39;7.50;;;1.02;;
40433;SDS011;26146;51.114;5.654;2023-07-30T05:47:41;9.57;;;1.10;;
40433;SDS011;26146;51.114;5.654;2023-07-30T05:51:42;7.47;;;1.02;;
40433;SDS011;26146;51.114;5.654;2023-07-30T05:55:43;8.88;;;1.23;;
40433;SDS011;26146;51.114;5.654;2023-07-30T05:59:44;8.85;;;1.55;;
40433;SDS011;26146;51.114;5.654;2023-07-30T06:03:45;12.23;;;1.42;;
40433;SDS011;26146;51.114;5.654;2023-07-30T06:07:46;8.05;;;1.00;;
40433;SDS011;26146;51.114;5.654;2023-07-30T06:11:47;8.88;;;1.60;;
40433;SDS011;26146;51.114;5.654;2023-07-30T06:15:48;8.20;;;1.30;;
40433;SDS011;26146;51.114;5.654;2023-07-30T06:19:49;10.15;;;1.10;;
40433;SDS011;26146;51.114;5.654;2023-07-30T06:23:50;6.68;;;1.20;;
40433;SDS011;26146;51.114;5.654;2023-07-30T06:27:51;10.93;;;1.50;;
40433;SDS011;26146;51.114;5.654;2023-07-30T06:35:57;9.43;;;1.35;;
40433;SDS011;26146;51.114;5.654;2023-07-30T06:39:58;9.82;;;1.60;;
40433;SDS011;26146;51.114;5.654;2023-07-30T06:43:59;10.73;;;1.42;;
40433;SDS011;26146;51.114;5.654;2023-07-30T06:48:00;11.10;;;1.50;;
40433;SDS011;26146;51.114;5.654;2023-07-30T06:52:01;12.30;;;1.70;;
40433;SDS011;26146;51.114;5.654;2023-07-30T06:56:02;11.55;;;1.58;;
40433;SDS011;26146;51.114;5.654;2023-07-30T07:00:03;12.27;;;1.60;;
40433;SDS011;26146;51.114;5.654;2023-07-30T07:04:05;11.32;;;1.42;;
40433;SDS011;26146;51.114;5.654;2023-07-30T07:08:06;10.18;;;1.67;;
40433;SDS011;26146;51.114;5.654;2023-07-30T07:12:07;9.55;;;1.42;;
40433;SDS011;26146;51.114;5.654;2023-07-30T07:16:08;11.30;;;1.40;;
40433;SDS011;26146;51.114;5.654;2023-07-30T07:20:12;12.82;;;1.70;;
40433;SDS011;26146;51.114;5.654;2023-07-30T07:24:13;11.38;;;1.80;;
40433;SDS011;26146;51.114;5.654;2023-07-30T07:28:14;13.05;;;1.60;;
40433;SDS011;26146;51.114;5.654;2023-07-30T07:32:15;11.45;;;1.45;;
40433;SDS011;26146;51.114;5.654;2023-07-30T07:36:16;12.95;;;2.10;;
40433;SDS011;26146;51.114;5.654;2023-07-30T07:40:17;11.30;;;1.90;;
40433;SDS011;26146;51.114;5.654;2023-07-30T07:44:18;10.43;;;1.50;;
40433;SDS011;26146;51.114;5.654;2023-07-30T07:48:19;10.68;;;1.60;;
40433;SDS011;26146;51.114;5.654;2023-07-30T07:52:20;8.27;;;1.40;;
40433;SDS011;26146;51.114;5.654;2023-07-30T07:56:21;9.27;;;1.60;;
40433;SDS011;26146;51.114;5.654;2023-07-30T08:00:22;10.23;;;1.40;;
40433;SDS011;26146;51.114;5.654;2023-07-30T08:04:23;12.90;;;1.83;;
40433;SDS011;26146;51.114;5.654;2023-07-30T08:08:27;12.75;;;2.05;;
40433;SDS011;26146;51.114;5.654;2023-07-30T08:12:30;13.48;;;1.80;;
40433;SDS011;26146;51.114;5.654;2023-07-30T08:16:33;11.15;;;1.45;;
40433;SDS011;26146;51.114;5.654;2023-07-30T08:20:34;13.32;;;2.03;;
40433;SDS011;26146;51.114;5.654;2023-07-30T08:24:35;10.85;;;1.50;;
40433;SDS011;26146;51.114;5.654;2023-07-30T08:28:36;13.77;;;1.80;;
40433;SDS011;26146;51.114;5.654;2023-07-30T08:32:37;13.68;;;1.70;;
40433;SDS011;26146;51.114;5.654;2023-07-30T08:36:38;12.48;;;1.90;;
40433;SDS011;26146;51.114;5.654;2023-07-30T08:40:39;10.35;;;1.27;;
40433;SDS011;26146;51.114;5.654;2023-07-30T08:44:40;10.15;;;1.50;;
40433;SDS011;26146;51.114;5.654;2023-07-30T08:48:41;10.65;;;1.70;;
40433;SDS011;26146;51.114;5.654;2023-07-30T08:52:42;10.32;;;1.63;;
40433;SDS011;26146;51.114;5.654;2023-07-30T08:56:46;10.45;;;1.60;;
40433;SDS011;26146;51.114;5.654;2023-07-30T09:00:49;12.27;;;1.70;;
40433;SDS011;26146;51.114;5.654;2023-07-30T09:04:52;8.20;;;1.20;;
40433;SDS011;26146;51.114;5.654;2023-07-30T09:08:56;11.30;;;1.40;;
40433;SDS011;26146;51.114;5.654;2023-07-30T09:12:58;10.43;;;1.30;;
40433;SDS011;26146;51.114;5.654;2023-07-30T09:16:59;9.20;;;1.50;;
40433;SDS011;26146;51.114;5.654;2023-07-30T09:21:01;10.20;;;1.17;;
40433;SDS011;26146;51.114;5.654;2023-07-30T09:25:03;10.80;;;1.45;;
40433;SDS011;26146;51.114;5.654;2023-07-30T09:29:07;10.10;;;1.40;;
40433;SDS011;26146;51.114;5.654;2023-07-30T09:33:11;8.48;;;1.33;;
40433;SDS011;26146;51.114;5.654;2023-07-30T09:37:22;9.57;;;1.52;;
40433;SDS011;26146;51.114;5.654;2023-07-30T09:41:23;11.70;;;1.98;;
40433;SDS011;26146;51.114;5.654;2023-07-30T09:45:25;9.48;;;1.40;;
40433;SDS011;26146;51.114;5.654;2023-07-30T09:49:29;10.27;;;1.30;;
40433;SDS011;26146;51.114;5.654;2023-07-30T09:53:30;7.57;;;1.10;;
40433;SDS011;26146;51.114;5.654;2023-07-30T09:57:35;12.00;;;1.40;;
40433;SDS011;26146;51.114;5.654;2023-07-30T10:01:43;8.80;;;1.50;;
40433;SDS011;26146;51.114;5.654;2023-07-30T10:05:46;9.40;;;1.50;;
40433;SDS011;26146;51.114;5.654;2023-07-30T10:09:48;10.07;;;1.40;;
40433;SDS011;26146;51.114;5.654;2023-07-30T10:13:53;9.10;;;1.17;;
40433;SDS011;26146;51.114;5.654;2023-07-30T10:17:56;9.50;;;1.20;;
40433;SDS011;26146;51.114;5.654;2023-07-30T10:22:04;8.15;;;1.00;;
40433;SDS011;26146;51.114;5.654;2023-07-30T10:26:19;8.25;;;1.05;;
40433;SDS011;26146;51.114;5.654;2023-07-30T10:30:31;9.43;;;1.75;;
40433;SDS011;26146;51.114;5.654;2023-07-30T10:34:45;9.63;;;1.17;;
40433;SDS011;26146;51.114;5.654;2023-07-30T10:38:49;8.77;;;0.80;;
40433;SDS011;26146;51.114;5.654;2023-07-30T10:42:50;4.78;;;0.65;;
40433;SDS011;26146;51.114;5.654;2023-07-30T10:46:55;7.78;;;0.70;;
40433;SDS011;26146;51.114;5.654;2023-07-30T10:50:57;5.28;;;0.75;;
40433;SDS011;26146;51.114;5.654;2023-07-30T10:55:01;4.85;;;0.40;;
40433;SDS011;26146;51.114;5.654;2023-07-30T10:59:03;5.85;;;0.80;;
40433;SDS011;26146;51.114;5.654;2023-07-30T11:03:07;6.68;;;0.80;;
40433;SDS011;26146;51.114;5.654;2023-07-30T11:07:08;8.02;;;1.15;;
40433;SDS011;26146;51.114;5.654;2023-07-30T11:11:18;6.50;;;1.00;;
40433;SDS011;26146;51.114;5.654;2023-07-30T11:15:19;6.20;;;0.80;;
40433;SDS011;26146;51.114;5.654;2023-07-30T11:19:21;6.05;;;0.90;;
40433;SDS011;26146;51.114;5.654;2023-07-30T11:23:22;7.03;;;1.00;;
40433;SDS011;26146;51.114;5.654;2023-07-30T11:27:24;5.97;;;1.00;;
40433;SDS011;26146;51.114;5.654;2023-07-30T11:31:25;7.85;;;0.93;;
40433;SDS011;26146;51.114;5.654;2023-07-30T11:35:27;6.85;;;1.10;;
40433;SDS011;26146;51.114;5.654;2023-07-30T11:39:32;6.65;;;1.00;;
40433;SDS011;26146;51.114;5.654;2023-07-30T11:43:33;6.22;;;0.90;;
40433;SDS011;26146;51.114;5.654;2023-07-30T11:47:39;8.32;;;1.45;;
40433;SDS011;26146;51.114;5.654;2023-07-30T11:51:41;7.43;;;0.82;;
40433;SDS011;26146;51.114;5.654;2023-07-30T11:55:43;8.70;;;1.13;;
40433;SDS011;26146;51.114;5.654;2023-07-30T11:59:45;8.70;;;1.13;;
40433;SDS011;26146;51.114;5.654;2023-07-30T12:03:46;7.18;;;0.90;;
40433;SDS011;26146;51.114;5.654;2023-07-30T12:07:47;6.18;;;0.90;;
40433;SDS011;26146;51.114;5.654;2023-07-30T12:11:49;8.63;;;0.93;;
40433;SDS011;26146;51.114;5.654;2023-07-30T12:15:51;7.93;;;1.02;;
40433;SDS011;26146;51.114;5.654;2023-07-30T12:19:56;8.57;;;1.33;;
40433;SDS011;26146;51.114;5.654;2023-07-30T12:24:01;8.45;;;1.10;;
40433;SDS011;26146;51.114;5.654;2023-07-30T12:28:02;8.13;;;1.17;;
40433;SDS011;26146;51.114;5.654;2023-07-30T12:32:03;9.73;;;1.05;;
40433;SDS011;26146;51.114;5.654;2023-07-30T12:36:04;6.63;;;0.80;;
40433;SDS011;26146;51.114;5.654;2023-07-30T12:40:05;7.55;;;1.00;;
40433;SDS011;26146;51.114;5.654;2023-07-30T12:44:07;9.00;;;1.25;;
40433;SDS011;26146;51.114;5.654;2023-07-30T12:48:10;7.10;;;0.85;;
40433;SDS011;26146;51.114;5.654;2023-07-30T12:52:11;7.18;;;0.88;;
40433;SDS011;26146;51.114;5.654;2023-07-30T12:56:11;8.68;;;0.80;;
40433;SDS011;26146;51.114;5.654;2023-07-30T13:00:15;7.75;;;0.85;;
40433;SDS011;26146;51.114;5.654;2023-07-30T13:04:17;7.18;;;1.10;;
40433;SDS011;26146;51.114;5.654;2023-07-30T13:08:19;6.25;;;0.70;;
40433;SDS011;26146;51.114;5.654;2023-07-30T13:12:21;6.88;;;1.10;;
40433;SDS011;26146;51.114;5.654;2023-07-30T13:16:22;7.97;;;1.00;;
40433;SDS011;26146;51.114;5.654;2023-07-30T13:20:23;8.43;;;0.95;;
40433;SDS011;26146;51.114;5.654;2023-07-30T13:24:23;8.25;;;1.10;;
40433;SDS011;26146;51.114;5.654;2023-07-30T13:28:25;6.95;;;0.90;;
40433;SDS011;26146;51.114;5.654;2023-07-30T13:32:26;6.28;;;0.75;;
40433;SDS011;26146;51.114;5.654;2023-07-30T13:36:27;6.70;;;1.00;;
40433;SDS011;26146;51.114;5.654;2023-07-30T13:40:28;7.93;;;0.90;;
40433;SDS011;26146;51.114;5.654;2023-07-30T13:44:29;7.25;;;0.85;;
40433;SDS011;26146;51.114;5.654;2023-07-30T13:48:30;7.43;;;0.98;;
40433;SDS011;26146;51.114;5.654;2023-07-30T13:52:30;7.47;;;0.90;;
40433;SDS011;26146;51.114;5.654;2023-07-30T13:56:32;6.97;;;0.80;;
40433;SDS011;26146;51.114;5.654;2023-07-30T14:00:35;5.43;;;0.80;;
40433;SDS011;26146;51.114;5.654;2023-07-30T14:04:36;7.15;;;1.10;;
40433;SDS011;26146;51.114;5.654;2023-07-30T14:08:37;5.38;;;0.80;;
40433;SDS011;26146;51.114;5.654;2023-07-30T14:12:39;7.70;;;0.98;;
40433;SDS011;26146;51.114;5.654;2023-07-30T14:16:39;6.90;;;0.77;;
40433;SDS011;26146;51.114;5.654;2023-07-30T14:20:43;7.20;;;1.00;;
40433;SDS011;26146;51.114;5.654;2023-07-30T14:24:44;6.20;;;0.90;;
40433;SDS011;26146;51.114;5.654;2023-07-30T14:28:45;7.57;;;0.80;;
40433;SDS011;26146;51.114;5.654;2023-07-30T14:32:46;8.68;;;1.00;;
40433;SDS011;26146;51.114;5.654;2023-07-30T14:36:47;7.68;;;1.13;;
40433;SDS011;26146;51.114;5.654;2023-07-30T14:40:48;7.35;;;1.17;;
40433;SDS011;26146;51.114;5.654;2023-07-30T14:44:49;6.50;;;0.90;;
40433;SDS011;26146;51.114;5.654;2023-07-30T14:48:49;7.00;;;1.02;;
40433;SDS011;26146;51.114;5.654;2023-07-30T14:52:50;6.28;;;0.70;;
40433;SDS011;26146;51.114;5.654;2023-07-30T14:56:54;6.25;;;0.90;;
40433;SDS011;26146;51.114;5.654;2023-07-30T15:00:55;5.70;;;0.90;;
40433;SDS011;26146;51.114;5.654;2023-07-30T15:04:56;7.35;;;1.10;;
40433;SDS011;26146;51.114;5.654;2023-07-30T15:08:57;5.88;;;0.80;;
40433;SDS011;26146;51.114;5.654;2023-07-30T15:12:58;6.57;;;1.10;;
40433;SDS011;26146;51.114;5.654;2023-07-30T15:16:59;6.15;;;0.82;;
40433;SDS011;26146;51.114;5.654;2023-07-30T15:21:00;7.15;;;1.02;;
40433;SDS011;26146;51.114;5.654;2023-07-30T15:25:01;7.53;;;0.93;;
40433;SDS011;26146;51.114;5.654;2023-07-30T15:29:03;6.65;;;1.08;;
40433;SDS011;26146;51.114;5.654;2023-07-30T15:33:04;5.25;;;0.90;;
40433;SDS011;26146;51.114;5.654;2023-07-30T15:37:08;5.65;;;1.00;;
40433;SDS011;26146;51.114;5.654;2023-07-30T15:41:09;5.35;;;0.95;;
40433;SDS011;26146;51.114;5.654;2023-07-30T15:45:10;5.22;;;0.85;;
40433;SDS011;26146;51.114;5.654;2023-07-30T15:49:11;4.68;;;0.90;;
40433;SDS011;26146;51.114;5.654;2023-07-30T15:53:13;6.22;;;0.80;;
40433;SDS011;26146;51.114;5.654;2023-07-30T15:57:14;8.02;;;1.33;;
40433;SDS011;26146;51.114;5.654;2023-07-30T16:01:15;6.95;;;1.00;;
40433;SDS011;26146;51.114;5.654;2023-07-30T16:05:16;8.07;;;1.02;;
40433;SDS011;26146;51.114;5.654;2023-07-30T16:09:17;6.90;;;1.10;;
40433;SDS011;26146;51.114;5.654;2023-07-30T16:13:18;4.47;;;1.00;;
40433;SDS011;26146;51.114;5.654;2023-07-30T16:17:19;6.22;;;1.00;;
40433;SDS011;26146;51.114;5.654;2023-07-30T16:21:20;6.93;;;1.10;;
40433;SDS011;26146;51.114;5.654;2023-07-30T16:25:21;6.32;;;1.20;;
40433;SDS011;26146;51.114;5.654;2023-07-30T16:29:22;7.28;;;1.30;;
40433;SDS011;26146;51.114;5.654;2023-07-30T16:33:23;7.55;;;1.20;;
40433;SDS011;26146;51.114;5.654;2023-07-30T16:37:24;7.28;;;1.25;;
40433;SDS011;26146;51.114;5.654;2023-07-30T16:41:25;10.32;;;1.20;;
40433;SDS011;26146;51.114;5.654;2023-07-30T16:45:26;7.68;;;1.40;;
40433;SDS011;26146;51.114;5.654;2023-07-30T16:49:28;7.13;;;1.40;;
40433;SDS011;26146;51.114;5.654;2023-07-30T16:53:28;7.63;;;1.58;;
40433;SDS011;26146;51.114;5.654;2023-07-30T16:57:29;10.18;;;1.70;;
40433;SDS011;26146;51.114;5.654;2023-07-30T17:01:32;22.13;;;2.53;;
40433;SDS011;26146;51.114;5.654;2023-07-30T17:05:33;10.77;;;1.88;;
40433;SDS011;26146;51.114;5.654;2023-07-30T17:09:35;10.77;;;2.20;;
40433;SDS011;26146;51.114;5.654;2023-07-30T17:13:36;8.70;;;2.25;;
40433;SDS011;26146;51.114;5.654;2023-07-30T17:17:37;9.85;;;1.90;;
40433;SDS011;26146;51.114;5.654;2023-07-30T17:21:38;9.85;;;1.80;;
40433;SDS011;26146;51.114;5.654;2023-07-30T17:25:39;8.35;;;1.77;;
40433;SDS011;26146;51.114;5.654;2023-07-30T17:29:40;7.50;;;1.63;;
40433;SDS011;26146;51.114;5.654;2023-07-30T17:33:41;10.30;;;2.10;;
40433;SDS011;26146;51.114;5.654;2023-07-30T17:37:42;7.95;;;1.85;;
40433;SDS011;26146;51.114;5.654;2023-07-30T17:41:43;8.55;;;1.95;;
40433;SDS011;26146;51.114;5.654;2023-07-30T17:45:44;10.77;;;1.85;;
40433;SDS011;26146;51.114;5.654;2023-07-30T17:49:46;8.75;;;1.67;;
40433;SDS011;26146;51.114;5.654;2023-07-30T17:53:48;11.43;;;2.15;;
40433;SDS011;26146;51.114;5.654;2023-07-30T17:57:49;9.32;;;1.80;;
40433;SDS011;26146;51.114;5.654;2023-07-30T18:01:50;10.63;;;1.83;;
40433;SDS011;26146;51.114;5.654;2023-07-30T18:05:51;7.93;;;1.80;;
40433;SDS011;26146;51.114;5.654;2023-07-30T18:09:52;7.75;;;1.75;;
40433;SDS011;26146;51.114;5.654;2023-07-30T18:13:53;9.25;;;1.70;;
40433;SDS011;26146;51.114;5.654;2023-07-30T18:17:54;6.22;;;1.50;;
40433;SDS011;26146;51.114;5.654;2023-07-30T18:21:55;6.25;;;1.60;;
40433;SDS011;26146;51.114;5.654;2023-07-30T18:25:56;7.50;;;1.58;;
40433;SDS011;26146;51.114;5.654;2023-07-30T18:29:57;6.97;;;1.65;;
40433;SDS011;26146;51.114;5.654;2023-07-30T18:33:58;8.25;;;1.95;;
40433;SDS011;26146;51.114;5.654;2023-07-30T18:37:59;8.25;;;1.90;;
40433;SDS011;26146;51.114;5.654;2023-07-30T18:42:00;6.85;;;1.70;;
40433;SDS011;26146;51.114;5.654;2023-07-30T18:46:01;6.68;;;1.75;;
40433;SDS011;26146;51.114;5.654;2023-07-30T18:50:02;8.93;;;2.03;;
40433;SDS011;26146;51.114;5.654;2023-07-30T18:54:03;8.23;;;2.10;;
40433;SDS011;26146;51.114;5.654;2023-07-30T18:58:05;7.75;;;2.20;;
40433;SDS011;26146;51.114;5.654;2023-07-30T19:02:06;7.65;;;1.90;;
40433;SDS011;26146;51.114;5.654;2023-07-30T19:06:08;7.47;;;2.13;;
40433;SDS011;26146;51.114;5.654;2023-07-30T19:10:09;7.70;;;2.40;;
40433;SDS011;26146;51.114;5.654;2023-07-30T19:14:10;8.50;;;2.13;;
40433;SDS011;26146;51.114;5.654;2023-07-30T19:18:11;7.78;;;2.35;;
40433;SDS011;26146;51.114;5.654;2023-07-30T19:22:13;8.40;;;2.33;;
40433;SDS011;26146;51.114;5.654;2023-07-30T19:26:14;8.65;;;2.53;;
40433;SDS011;26146;51.114;5.654;2023-07-30T19:30:15;7.22;;;2.60;;
40433;SDS011;26146;51.114;5.654;2023-07-30T19:34:16;7.30;;;2.28;;
40433;SDS011;26146;51.114;5.654;2023-07-30T19:38:17;8.18;;;2.22;;
40433;SDS011;26146;51.114;5.654;2023-07-30T19:42:20;9.35;;;2.30;;
40433;SDS011;26146;51.114;5.654;2023-07-30T19:46:21;10.38;;;2.42;;
40433;SDS011;26146;51.114;5.654;2023-07-30T19:50:22;7.45;;;2.15;;
40433;SDS011;26146;51.114;5.654;2023-07-30T19:54:26;7.47;;;2.20;;
40433;SDS011;26146;51.114;5.654;2023-07-30T19:58:28;8.02;;;2.40;;
40433;SDS011;26146;51.114;5.654;2023-07-30T20:02:30;7.32;;;2.13;;
40433;SDS011;26146;51.114;5.654;2023-07-30T20:06:31;9.68;;;2.20;;
40433;SDS011;26146;51.114;5.654;2023-07-30T20:10:32;10.50;;;2.90;;
40433;SDS011;26146;51.114;5.654;2023-07-30T20:14:35;10.35;;;2.58;;
40433;SDS011;26146;51.114;5.654;2023-07-30T20:18:37;9.05;;;2.30;;
40433;SDS011;26146;51.114;5.654;2023-07-30T20:22:40;10.68;;;2.60;;
40433;SDS011;26146;51.114;5.654;2023-07-30T20:26:41;7.95;;;2.40;;
40433;SDS011;26146;51.114;5.654;2023-07-30T20:30:42;9.48;;;2.50;;
40433;SDS011;26146;51.114;5.654;2023-07-30T20:34:44;9.38;;;2.60;;
40433;SDS011;26146;51.114;5.654;2023-07-30T20:38:45;8.70;;;2.80;;
40433;SDS011;26146;51.114;5.654;2023-07-30T20:42:46;11.27;;;2.50;;
40433;SDS011;26146;51.114;5.654;2023-07-30T20:46:48;9.38;;;2.40;;
40433;SDS011;26146;51.114;5.654;2023-07-30T20:50:49;9.57;;;2.35;;
40433;SDS011;26146;51.114;5.654;2023-07-30T20:54:50;8.65;;;2.58;;
40433;SDS011;26146;51.114;5.654;2023-07-30T20:58:51;9.52;;;2.40;;
40433;SDS011;26146;51.114;5.654;2023-07-30T21:02:52;9.43;;;2.63;;
40433;SDS011;26146;51.114;5.654;2023-07-30T21:06:53;8.43;;;2.80;;
40433;SDS011;26146;51.114;5.654;2023-07-30T21:10:54;9.73;;;2.95;;
40433;SDS011;26146;51.114;5.654;2023-07-30T21:14:55;10.63;;;2.80;;
40433;SDS011;26146;51.114;5.654;2023-07-30T21:18:56;9.10;;;2.63;;
40433;SDS011;26146;51.114;5.654;2023-07-30T21:22:57;9.63;;;2.80;;
40433;SDS011;26146;51.114;5.654;2023-07-30T21:26:58;9.27;;;2.80;;
40433;SDS011;26146;51.114;5.654;2023-07-30T21:31:00;9.88;;;2.70;;
40433;SDS011;26146;51.114;5.654;2023-07-30T21:35:02;11.27;;;2.80;;
40433;SDS011;26146;51.114;5.654;2023-07-30T21:39:03;8.45;;;2.67;;
40433;SDS011;26146;51.114;5.654;2023-07-30T21:43:04;8.95;;;2.58;;
40433;SDS011;26146;51.114;5.654;2023-07-30T21:47:05;10.40;;;2.78;;
40433;SDS011;26146;51.114;5.654;2023-07-30T21:51:06;10.52;;;2.90;;
40433;SDS011;26146;51.114;5.654;2023-07-30T21:55:09;9.02;;;2.83;;
40433;SDS011;26146;51.114;5.654;2023-07-30T21:59:10;10.40;;;2.97;;
40433;SDS011;26146;51.114;5.654;2023-07-30T22:03:11;9.18;;;3.00;;
40433;SDS011;26146;51.114;5.654;2023-07-30T22:07:13;10.85;;;3.20;;
40433;SDS011;26146;51.114;5.654;2023-07-30T22:11:14;13.05;;;3.40;;
40433;SDS011;26146;51.114;5.654;2023-07-30T22:15:16;16.40;;;3.22;;
40433;SDS011;26146;51.114;5.654;2023-07-30T22:19:17;10.70;;;3.15;;
40433;SDS011;26146;51.114;5.654;2023-07-30T22:23:18;11.30;;;3.28;;
40433;SDS011;26146;51.114;5.654;2023-07-30T22:27:19;12.02;;;2.88;;
40433;SDS011;26146;51.114;5.654;2023-07-30T22:31:20;10.68;;;3.47;;
40433;SDS011;26146;51.114;5.654;2023-07-30T22:35:21;14.85;;;3.28;;
40433;SDS011;26146;51.114;5.654;2023-07-30T22:39:22;12.95;;;3.20;;
40433;SDS011;26146;51.114;5.654;2023-07-30T22:43:23;11.25;;;3.13;;
40433;SDS011;26146;51.114;5.654;2023-07-30T22:47:24;11.48;;;3.08;;
40433;SDS011;26146;51.114;5.654;2023-07-30T22:51:25;11.90;;;3.40;;
40433;SDS011;26146;51.114;5.654;2023-07-30T22:55:26;11.95;;;3.45;;
40433;SDS011;26146;51.114;5.654;2023-07-30T22:59:27;13.07;;;3.20;;
40433;SDS011;26146;51.114;5.654;2023-07-30T23:03:28;13.95;;;3.40;;
40433;SDS011;26146;51.114;5.654;2023-07-30T23:07:29;12.93;;;3.33;;
40433;SDS011;26146;51.114;5.654;2023-07-30T23:11:31;10.82;;;3.17;;
40433;SDS011;26146;51.114;5.654;2023-07-30T23:15:34;11.13;;;3.10;;
40433;SDS011;26146;51.114;5.654;2023-07-30T23:19:35;11.50;;;2.95;;
40433;SDS011;26146;51.114;5.654;2023-07-30T23:23:36;13.38;;;3.75;;
40433;SDS011;26146;51.114;5.654;2023-07-30T23:27:37;12.48;;;3.30;;
40433;SDS011;26146;51.114;5.654;2023-07-30T23:31:38;13.35;;;3.17;;
40433;SDS011;26146;51.114;5.654;2023-07-30T23:35:39;15.63;;;3.33;;
40433;SDS011;26146;51.114;5.654;2023-07-30T23:39:40;14.43;;;3.47;;
40433;SDS011;26146;51.114;5.654;2023-07-30T23:43:41;14.75;;;3.40;;
40433;SDS011;26146;51.114;5.654;2023-07-30T23:47:42;16.95;;;3.42;;
40433;SDS011;26146;51.114;5.654;2023-07-30T23:51:43;11.55;;;3.08;;
40433;SDS011;26146;51.114;5.654;2023-07-30T23:55:44;14.45;;;3.25;;
40433;SDS011;26146;51.114;5.654;2023-07-30T23:59:45;14.70;;;3.08;;
